createdAt,value
2023-01-11T00:00:56.499Z,1.90
2023-01-11T00:05:59.590Z,1.90
2023-01-11T00:11:02.314Z,1.80
2023-01-11T00:16:08.857Z,1.90
2023-01-11T00:21:10.753Z,1.90
2023-01-11T00:26:13.382Z,1.90
2023-01-11T00:31:15.803Z,1.80
2023-01-11T00:36:17.556Z,1.80
2023-01-11T00:41:38.580Z,1.90
2023-01-11T00:46:59.136Z,1.80
2023-01-11T00:52:01.495Z,1.80
2023-01-11T00:57:03.676Z,1.80
2023-01-11T01:02:05.929Z,1.80
2023-01-11T01:07:08.216Z,1.80
2023-01-11T01:12:09.994Z,1.80
2023-01-11T01:17:11.720Z,1.70
2023-01-11T01:22:13.446Z,1.80
2023-01-11T01:27:17.770Z,1.70
2023-01-11T01:32:19.531Z,1.70
2023-01-11T01:37:21.252Z,1.70
2023-01-11T01:42:24.173Z,1.70
2023-01-11T01:47:46.094Z,1.70
2023-01-11T01:52:51.869Z,1.70
2023-01-11T01:57:55.144Z,1.70
2023-01-11T02:02:59.271Z,1.70
2023-01-11T02:08:05.265Z,1.70
2023-01-11T02:13:10.446Z,1.70
2023-01-11T02:18:13.955Z,1.70
2023-01-11T02:23:37.333Z,1.70
2023-01-11T02:28:51.980Z,1.70
2023-01-11T02:34:12.187Z,1.60
2023-01-11T02:39:23.076Z,1.60
2023-01-11T02:44:53.869Z,1.60
2023-01-11T02:50:14.864Z,1.60
2023-01-11T02:55:21.043Z,1.60
2023-01-11T03:00:24.230Z,1.50
2023-01-11T03:05:26.212Z,1.60
2023-01-11T03:10:56.863Z,1.60
2023-01-11T03:16:32.547Z,1.60
2023-01-11T03:21:46.991Z,1.60
2023-01-11T03:27:19.647Z,1.50
2023-01-11T03:32:27.996Z,1.50
2023-01-11T03:37:32.754Z,1.50
2023-01-11T03:42:56.579Z,1.50
2023-01-11T03:48:01.492Z,1.50
2023-01-11T03:53:07.121Z,1.50
2023-01-11T03:58:09.415Z,1.50
2023-01-11T04:03:12.658Z,1.50
2023-01-11T04:08:14.585Z,1.50
2023-01-11T04:13:16.297Z,1.50
2023-01-11T04:18:18.178Z,1.50
2023-01-11T04:23:20.007Z,1.50
2023-01-11T04:28:21.879Z,1.50
2023-01-11T04:33:23.710Z,1.40
2023-01-11T04:38:26.908Z,1.50
2023-01-11T04:43:28.837Z,1.40
2023-01-11T04:48:30.594Z,1.50
2023-01-11T04:53:32.548Z,1.40
2023-01-11T04:58:38.119Z,1.50
2023-01-11T05:03:40.375Z,1.50
2023-01-11T05:08:46.861Z,1.40
2023-01-11T05:13:48.608Z,1.40
2023-01-11T05:18:52.885Z,1.40
2023-01-11T05:23:55.206Z,1.40
2023-01-11T05:29:00.527Z,1.40
2023-01-11T05:34:02.313Z,1.40
2023-01-11T05:39:05.319Z,1.40
2023-01-11T05:44:29.682Z,1.40
2023-01-11T05:49:31.615Z,1.40
2023-01-11T05:54:33.358Z,1.40
2023-01-11T05:59:35.078Z,1.40
2023-01-11T06:04:36.864Z,1.40
2023-01-11T06:09:38.699Z,1.40
2023-01-11T06:14:40.500Z,1.40
2023-01-11T06:19:42.289Z,1.30
2023-01-11T06:24:44.096Z,1.40
2023-01-11T06:29:45.848Z,1.30
2023-01-11T06:34:47.561Z,1.30
2023-01-11T06:39:49.360Z,1.40
2023-01-11T06:44:51.044Z,1.30
2023-01-11T06:49:52.760Z,1.30
2023-01-11T06:54:54.477Z,1.30
2023-01-11T06:59:56.373Z,1.30
2023-01-11T07:04:58.140Z,1.30
2023-01-11T07:10:00.164Z,1.30
2023-01-11T07:15:02.556Z,1.30
2023-01-11T07:20:06.017Z,1.30
2023-01-11T07:25:08.258Z,1.30
2023-01-11T07:30:10.794Z,1.30
2023-01-11T07:35:12.536Z,1.30
2023-01-11T07:40:16.454Z,1.30
2023-01-11T07:45:18.698Z,1.40
2023-01-11T07:50:20.474Z,1.30
2023-01-11T07:55:22.355Z,1.40
2023-01-11T08:00:25.245Z,1.40
2023-01-11T08:05:27.727Z,1.40
2023-01-11T08:10:29.874Z,1.40
2023-01-11T08:15:33.004Z,1.40
2023-01-11T08:20:34.923Z,1.50
2023-01-11T08:25:37.177Z,1.50
2023-01-11T08:30:39.995Z,1.50
2023-01-11T08:35:41.767Z,1.50
2023-01-11T08:40:43.487Z,1.50
2023-01-11T08:45:45.245Z,1.50
2023-01-11T08:50:47.056Z,1.50
2023-01-11T08:55:50.132Z,1.50
2023-01-11T09:00:52.112Z,1.50
2023-01-11T09:05:54.028Z,1.50
2023-01-11T09:10:56.772Z,1.50
2023-01-11T09:15:58.549Z,1.50
2023-01-11T09:21:00.296Z,1.60
2023-01-11T09:26:02.072Z,1.60
2023-01-11T09:31:04.164Z,1.50
2023-01-11T09:36:06.367Z,1.60
2023-01-11T09:41:26.872Z,1.60
2023-01-11T09:46:30.007Z,1.60
2023-01-11T09:51:37.591Z,1.70
2023-01-11T09:56:49.869Z,1.60
2023-01-11T10:02:19.592Z,1.60
2023-01-11T10:19:33.409Z,1.70
2023-01-11T10:24:42.452Z,1.70
2023-01-11T10:30:07.095Z,1.80
2023-01-11T10:35:36.773Z,1.80
2023-01-11T10:41:03.015Z,1.80
2023-01-11T10:46:18.256Z,1.80
2023-01-11T10:51:29.323Z,1.70
2023-01-11T10:57:02.418Z,1.70
2023-01-11T11:02:53.951Z,1.80
2023-01-11T11:08:07.082Z,1.90
2023-01-11T11:13:35.537Z,1.80
2023-01-11T11:18:37.614Z,1.80
2023-01-11T11:23:39.377Z,1.80
2023-01-11T11:29:03.633Z,1.90
2023-01-11T11:34:20.815Z,1.90
2023-01-11T11:39:29.145Z,1.90
2023-01-11T11:44:30.988Z,2.00
2023-01-11T11:49:34.709Z,1.90
2023-01-11T11:54:51.630Z,1.90
2023-01-11T12:00:09.259Z,1.90
2023-01-11T12:05:11.942Z,1.80
2023-01-11T12:10:16.648Z,1.90
2023-01-11T12:15:24.578Z,1.90
2023-01-11T12:20:27.631Z,1.90
2023-01-11T12:25:29.534Z,1.90
2023-01-11T12:31:16.188Z,1.80
2023-01-11T12:36:53.246Z,1.80
2023-01-11T12:42:10.444Z,1.70
2023-01-11T12:47:33.847Z,1.70
2023-01-11T12:53:10.241Z,1.60
2023-01-11T12:58:33.334Z,1.70
2023-01-11T13:04:05.939Z,1.70
2023-01-11T13:09:44.717Z,1.60
2023-01-11T13:15:08.225Z,1.50
2023-01-11T13:20:26.706Z,1.50
2023-01-11T13:25:30.151Z,1.40
2023-01-11T13:30:32.353Z,1.40
2023-01-11T13:35:46.818Z,1.30
2023-01-11T13:40:52.941Z,1.30
2023-01-11T13:46:15.710Z,1.30
2023-01-11T13:51:29.039Z,1.30
2023-01-11T13:56:36.264Z,1.30
2023-01-11T14:01:58.131Z,1.20
2023-01-11T14:07:17.753Z,1.20
2023-01-11T14:12:44.002Z,1.20
2023-01-11T14:17:59.163Z,1.20
2023-01-11T14:23:15.320Z,1.30
2023-01-11T14:28:34.412Z,1.20
2023-01-11T14:33:59.416Z,1.20
2023-01-11T14:39:06.905Z,1.20
2023-01-11T14:44:20.930Z,1.20
2023-01-11T14:49:34.604Z,1.20
2023-01-11T14:54:48.820Z,1.20
2023-01-11T14:59:50.635Z,1.20
2023-01-11T15:04:52.651Z,1.30
2023-01-11T15:09:54.801Z,1.30
2023-01-11T15:15:06.058Z,1.30
2023-01-11T15:20:10.928Z,1.30
2023-01-11T15:25:24.661Z,1.30
2023-01-11T15:30:30.030Z,1.30
2023-01-11T15:35:33.697Z,1.30
2023-01-11T15:40:40.585Z,1.30
2023-01-11T15:46:12.021Z,1.20
2023-01-11T15:51:23.721Z,1.30
2023-01-11T15:56:36.417Z,1.30
2023-01-11T16:02:14.832Z,1.30
2023-01-11T16:07:25.596Z,1.30
2023-01-11T16:12:54.602Z,1.30
2023-01-11T16:18:16.675Z,1.30
2023-01-11T16:23:21.117Z,1.40
2023-01-11T16:28:23.376Z,1.30
2023-01-11T16:33:28.160Z,1.30
2023-01-11T16:38:31.208Z,1.30
2023-01-11T16:43:34.226Z,1.30
2023-01-11T16:48:35.933Z,1.40
2023-01-11T16:53:53.301Z,1.30
2023-01-11T16:59:19.944Z,1.30
2023-01-11T17:04:33.952Z,1.40
2023-01-11T17:09:38.405Z,1.30
2023-01-11T17:15:17.712Z,1.40
2023-01-11T17:20:28.705Z,1.40
2023-01-11T17:25:44.026Z,1.40
2023-01-11T17:30:48.860Z,1.40
2023-01-11T17:35:51.151Z,1.40
2023-01-11T17:40:56.775Z,1.40
2023-01-11T17:46:01.960Z,1.40
2023-01-11T17:51:05.607Z,1.40
2023-01-11T17:56:28.119Z,1.40
2023-01-11T18:01:29.896Z,1.40
2023-01-11T18:06:45.078Z,1.50
2023-01-11T18:11:47.245Z,1.40
2023-01-11T18:16:56.563Z,1.40
2023-01-11T18:21:58.348Z,1.40
2023-01-11T18:27:28.209Z,1.40
2023-01-11T18:32:41.088Z,1.40
2023-01-11T18:37:42.971Z,1.50
2023-01-11T18:42:52.381Z,1.40
2023-01-11T18:47:54.396Z,1.40
2023-01-11T18:52:56.176Z,1.40
2023-01-11T18:57:58.591Z,1.40
2023-01-11T19:03:01.077Z,1.40
2023-01-11T19:08:03.041Z,1.40
2023-01-11T19:13:04.861Z,1.40
2023-01-11T19:18:06.715Z,1.40
2023-01-11T19:23:08.765Z,1.40
2023-01-11T19:28:10.643Z,1.40
2023-01-11T19:33:12.358Z,1.40
2023-01-11T19:38:16.072Z,1.40
2023-01-11T19:43:18.057Z,1.40
2023-01-11T19:48:19.788Z,1.30
2023-01-11T19:53:21.589Z,1.40
2023-01-11T19:58:23.427Z,1.40
2023-01-11T20:03:25.744Z,1.30
2023-01-11T20:08:27.464Z,1.30
2023-01-11T20:13:29.161Z,1.30
2023-01-11T20:18:31.024Z,1.30
2023-01-11T20:23:33.722Z,1.30
2023-01-11T20:28:35.463Z,1.40
2023-01-11T20:33:37.461Z,1.40
2023-01-11T20:38:39.590Z,1.40
2023-01-11T20:43:41.328Z,1.30
2023-01-11T20:48:43.022Z,1.40
2023-01-11T20:53:44.770Z,1.40
2023-01-11T20:58:48.147Z,1.40
2023-01-11T21:03:49.888Z,1.40
2023-01-11T21:08:58.845Z,1.50
2023-01-11T21:14:04.080Z,1.60
2023-01-11T21:19:05.901Z,1.50
2023-01-11T21:24:08.360Z,1.50
2023-01-11T21:29:11.839Z,1.50
2023-01-11T21:34:14.508Z,1.50
2023-01-11T21:39:16.993Z,1.60
2023-01-11T21:44:20.232Z,1.60
2023-01-11T21:49:24.176Z,1.60
2023-01-11T21:54:25.948Z,1.60
2023-01-11T21:59:27.998Z,1.60
2023-01-11T22:04:29.864Z,1.70
2023-01-11T22:09:32.467Z,1.70
2023-01-11T22:14:35.148Z,1.70
2023-01-11T22:19:36.877Z,1.70
2023-01-11T22:24:38.687Z,1.70
2023-01-11T22:29:43.229Z,1.70
2023-01-11T22:34:45.002Z,1.80
2023-01-11T22:39:46.947Z,1.80
2023-01-11T22:44:49.684Z,1.80
2023-01-11T22:49:54.131Z,1.70
2023-01-11T22:54:56.060Z,1.80
2023-01-11T22:59:58.939Z,1.80
2023-01-11T23:05:00.724Z,1.80
2023-01-11T23:10:02.542Z,1.80
2023-01-11T23:15:05.324Z,1.80
2023-01-11T23:20:07.518Z,1.80
2023-01-11T23:25:09.731Z,1.80
2023-01-11T23:30:11.982Z,1.80
2023-01-11T23:35:13.717Z,1.80
2023-01-11T23:40:15.814Z,1.80
2023-01-11T23:45:17.573Z,1.80
2023-01-11T23:50:19.315Z,1.90
2023-01-11T23:55:21.076Z,1.80
